createdAt,value
2023-03-13T00:01:24.947Z,7.31
2023-03-13T00:03:53.092Z,7.37
2023-03-13T00:06:20.781Z,7.36
2023-03-13T00:08:48.364Z,7.34
2023-03-13T00:11:18.624Z,7.31
2023-03-13T00:13:46.121Z,7.35
2023-03-13T00:16:15.922Z,7.37
2023-03-13T00:18:48.701Z,7.34
2023-03-13T00:21:17.344Z,7.31
2023-03-13T00:23:45.086Z,7.29
2023-03-13T00:26:18.344Z,7.35
2023-03-13T00:28:46.961Z,7.35
2023-03-13T00:31:20.474Z,7.45
2023-03-13T00:33:53.385Z,7.41
2023-03-13T00:36:30.175Z,7.42
2023-03-13T00:38:58.664Z,7.43
2023-03-13T00:41:28.420Z,7.47
2023-03-13T00:43:56.453Z,7.44
2023-03-13T00:46:26.696Z,7.41
2023-03-13T00:48:54.530Z,7.35
2023-03-13T00:51:24.186Z,7.35
2023-03-13T00:53:52.313Z,7.34
2023-03-13T00:56:21.752Z,7.35
2023-03-13T00:58:50.514Z,7.35
2023-03-13T01:01:21.276Z,7.32
2023-03-13T01:03:52.640Z,7.30
2023-03-13T01:06:23.034Z,7.30
2023-03-13T01:08:51.472Z,7.33
2023-03-13T01:11:22.201Z,7.31
2023-03-13T01:13:50.644Z,7.31
2023-03-13T01:16:21.702Z,7.33
2023-03-13T01:18:52.290Z,7.31
2023-03-13T01:21:21.561Z,7.31
2023-03-13T01:23:50.331Z,7.40
2023-03-13T01:26:18.242Z,7.35
2023-03-13T01:28:46.212Z,7.29
2023-03-13T01:31:27.374Z,7.35
2023-03-13T01:33:57.212Z,7.37
2023-03-13T01:36:25.284Z,7.35
2023-03-13T01:38:55.356Z,7.24
2023-03-13T01:41:24.831Z,7.18
2023-03-13T01:43:53.192Z,7.24
2023-03-13T01:46:25.509Z,7.28
2023-03-13T01:49:12.387Z,7.18
2023-03-13T01:52:10.789Z,7.20
2023-03-13T01:54:54.431Z,7.29
2023-03-13T01:57:28.540Z,7.26
2023-03-13T02:00:10.768Z,7.28
2023-03-13T02:02:46.420Z,7.29
2023-03-13T02:05:16.012Z,7.31
2023-03-13T02:07:47.049Z,7.32
2023-03-13T02:10:18.055Z,7.29
2023-03-13T02:12:45.832Z,7.34
2023-03-13T02:15:19.952Z,7.31
2023-03-13T02:17:49.512Z,7.35
2023-03-13T02:20:22.431Z,7.38
2023-03-13T02:23:22.677Z,7.35
2023-03-13T02:25:53.625Z,7.38
2023-03-13T02:28:35.067Z,7.35
2023-03-13T02:31:06.521Z,7.24
2023-03-13T02:33:39.333Z,7.18
2023-03-13T02:36:08.959Z,7.17
2023-03-13T02:38:45.272Z,7.15
2023-03-13T02:41:14.478Z,7.12
2023-03-13T02:43:42.076Z,7.07
2023-03-13T02:46:16.120Z,7.01
2023-03-13T02:48:54.571Z,7.00
2023-03-13T02:51:35.244Z,7.02
2023-03-13T02:54:09.299Z,7.04
2023-03-13T02:56:40.580Z,7.21
2023-03-13T02:59:10.127Z,7.27
2023-03-13T03:01:41.396Z,7.33
2023-03-13T03:04:08.877Z,7.37
2023-03-13T03:06:36.376Z,7.37
2023-03-13T03:09:05.468Z,7.37
2023-03-13T03:11:35.808Z,7.40
2023-03-13T03:14:08.292Z,7.41
2023-03-13T03:16:40.558Z,7.41
2023-03-13T03:19:09.717Z,7.48
2023-03-13T03:21:37.534Z,7.47
2023-03-13T03:24:05.578Z,7.41
2023-03-13T03:26:33.111Z,7.45
2023-03-13T03:29:01.109Z,7.46
2023-03-13T03:31:28.736Z,7.43
2023-03-13T03:33:58.007Z,7.38
2023-03-13T03:36:25.689Z,7.33
2023-03-13T03:38:53.460Z,7.33
2023-03-13T03:41:25.330Z,7.37
2023-03-13T03:43:53.624Z,7.36
2023-03-13T03:46:24.923Z,7.37
2023-03-13T03:48:52.588Z,7.40
2023-03-13T03:51:20.605Z,7.44
2023-03-13T03:53:48.841Z,7.53
2023-03-13T03:56:16.454Z,7.59
2023-03-13T03:58:49.632Z,7.63
2023-03-13T04:01:35.915Z,7.65
2023-03-13T04:04:04.874Z,7.64
2023-03-13T04:06:32.547Z,7.64
2023-03-13T04:09:00.986Z,7.69
2023-03-13T04:11:30.494Z,7.66
2023-03-13T04:13:58.447Z,7.67
2023-03-13T04:16:27.028Z,7.63
2023-03-13T04:18:56.057Z,7.59
2023-03-13T04:21:26.114Z,7.61
2023-03-13T04:24:00.274Z,7.65
2023-03-13T04:26:28.366Z,7.66
2023-03-13T04:28:58.370Z,7.67
2023-03-13T04:31:58.010Z,7.74
2023-03-13T04:34:28.392Z,7.82
2023-03-13T04:37:16.755Z,7.87
2023-03-13T04:40:09.561Z,7.88
2023-03-13T04:42:41.497Z,7.90
2023-03-13T04:45:18.284Z,7.97
2023-03-13T04:48:21.336Z,8.00
2023-03-13T04:51:02.634Z,8.13
2023-03-13T04:53:48.462Z,8.16
2023-03-13T04:56:42.729Z,8.17
2023-03-13T04:59:31.757Z,8.19
2023-03-13T05:02:07.389Z,8.23
2023-03-13T05:04:43.816Z,8.25
2023-03-13T05:07:17.338Z,8.22
2023-03-13T05:10:07.104Z,8.24
2023-03-13T05:12:48.313Z,8.24
2023-03-13T05:15:26.226Z,8.27
2023-03-13T05:18:13.055Z,8.32
2023-03-13T05:20:57.399Z,8.31
2023-03-13T05:23:43.499Z,8.29
2023-03-13T05:26:31.220Z,8.25
2023-03-13T05:29:17.414Z,8.12
2023-03-13T05:32:03.539Z,7.98
2023-03-13T05:34:51.250Z,7.92
2023-03-13T05:37:48.006Z,7.83
2023-03-13T05:40:29.880Z,7.73
2023-03-13T05:43:26.643Z,7.67
2023-03-13T05:46:13.004Z,7.65
2023-03-13T05:49:02.992Z,7.66
2023-03-13T05:51:33.448Z,7.61
2023-03-13T05:54:19.708Z,7.63
2023-03-13T05:57:05.821Z,7.62
2023-03-13T05:59:54.644Z,7.55
2023-03-13T06:02:41.319Z,7.53
2023-03-13T06:05:12.050Z,7.58
2023-03-13T06:07:39.765Z,7.62
2023-03-13T06:10:07.411Z,7.62
2023-03-13T06:12:36.156Z,7.51
2023-03-13T06:15:07.391Z,7.58
2023-03-13T06:18:10.214Z,7.55
2023-03-13T06:20:39.972Z,7.58
2023-03-13T06:23:08.588Z,7.53
2023-03-13T06:25:36.007Z,7.53
2023-03-13T06:32:16.129Z,7.64
2023-03-13T06:34:43.697Z,7.62
2023-03-13T06:37:11.691Z,7.74
2023-03-13T06:39:39.369Z,7.78
2023-03-13T06:42:07.469Z,7.85
2023-03-13T06:44:35.005Z,7.86
2023-03-13T06:47:02.521Z,7.93
2023-03-13T06:49:30.099Z,8.03
2023-03-13T06:51:59.149Z,7.97
2023-03-13T06:54:26.801Z,8.05
2023-03-13T06:56:54.248Z,8.08
2023-03-13T06:59:21.890Z,8.00
2023-03-13T07:01:49.274Z,8.01
2023-03-13T07:04:17.014Z,8.04
2023-03-13T07:06:44.910Z,8.01
2023-03-13T07:09:12.443Z,8.07
2023-03-13T07:11:39.902Z,8.12
2023-03-13T07:14:16.606Z,8.17
2023-03-13T07:16:46.321Z,8.17
2023-03-13T07:19:15.386Z,8.33
2023-03-13T07:21:44.281Z,8.47
2023-03-13T07:24:11.915Z,8.59
2023-03-13T07:26:39.770Z,8.66
2023-03-13T07:29:08.633Z,8.69
2023-03-13T07:31:36.230Z,8.62
2023-03-13T07:34:03.691Z,8.60
2023-03-13T07:36:31.435Z,8.47
2023-03-13T07:38:58.873Z,8.47
2023-03-13T07:41:26.367Z,8.48
2023-03-13T07:43:53.856Z,8.40
2023-03-13T07:46:21.837Z,8.27
2023-03-13T07:48:49.439Z,8.16
2023-03-13T07:51:25.142Z,8.16
2023-03-13T07:53:55.243Z,8.07
2023-03-13T07:56:24.622Z,7.97
2023-03-13T07:58:52.178Z,7.98
2023-03-13T08:01:24.431Z,7.93
2023-03-13T08:03:55.623Z,7.97
2023-03-13T08:06:25.106Z,7.88
2023-03-13T08:08:53.627Z,7.85
2023-03-13T08:11:26.101Z,7.93
2023-03-13T08:13:54.526Z,8.07
2023-03-13T08:16:24.631Z,8.12
2023-03-13T08:18:57.495Z,8.07
2023-03-13T08:21:30.874Z,8.18
2023-03-13T08:24:01.446Z,8.22
2023-03-13T08:26:30.695Z,8.18
2023-03-13T08:29:00.959Z,8.32
2023-03-13T08:31:31.207Z,8.45
2023-03-13T08:33:59.566Z,8.59
2023-03-13T08:36:33.966Z,8.65
2023-03-13T08:39:04.993Z,8.62
2023-03-13T08:41:37.054Z,8.72
2023-03-13T08:44:05.658Z,8.91
2023-03-13T08:46:35.466Z,9.05
2023-03-13T08:49:05.108Z,9.18
2023-03-13T08:51:33.631Z,9.27
2023-03-13T08:54:02.049Z,9.38
2023-03-13T08:56:30.611Z,9.46
2023-03-13T08:59:00.314Z,9.59
2023-03-13T09:01:30.250Z,9.66
2023-03-13T09:03:59.931Z,9.81
2023-03-13T09:06:28.794Z,9.97
2023-03-13T09:08:59.512Z,10.13
2023-03-13T09:11:27.793Z,10.15
2023-03-13T09:13:56.283Z,10.32
2023-03-13T09:16:25.626Z,10.43
2023-03-13T09:18:53.588Z,10.47
2023-03-13T09:21:24.044Z,10.68
2023-03-13T09:23:51.982Z,10.70
2023-03-13T09:26:22.979Z,10.94
2023-03-13T09:28:52.687Z,10.93
2023-03-13T09:31:22.976Z,10.88
2023-03-13T09:33:51.132Z,10.90
2023-03-13T09:36:22.092Z,10.82
2023-03-13T09:38:55.213Z,10.62
2023-03-13T09:41:24.592Z,10.45
2023-03-13T09:44:06.930Z,10.37
2023-03-13T09:46:44.524Z,10.34
2023-03-13T09:49:37.074Z,10.31
2023-03-13T09:52:14.647Z,10.43
2023-03-13T09:54:50.901Z,10.42
2023-03-13T09:57:32.380Z,10.74
2023-03-13T10:00:13.771Z,10.94
2023-03-13T10:02:47.729Z,11.09
2023-03-13T10:05:24.921Z,11.23
2023-03-13T10:08:01.833Z,11.57
2023-03-13T10:11:07.776Z,11.77
2023-03-13T10:13:48.109Z,11.94
2023-03-13T10:16:24.714Z,12.17
2023-03-13T10:19:00.169Z,12.01
2023-03-13T10:21:34.716Z,12.00
2023-03-13T10:24:23.273Z,11.94
2023-03-13T10:26:50.789Z,11.82
2023-03-13T10:29:25.848Z,11.88
2023-03-13T10:32:04.986Z,11.87
2023-03-13T10:34:51.520Z,11.93
2023-03-13T10:37:42.550Z,12.00
2023-03-13T10:40:14.623Z,12.13
2023-03-13T10:42:46.170Z,12.20
2023-03-13T10:45:19.009Z,12.30
2023-03-13T10:47:55.656Z,12.43
2023-03-13T10:50:25.829Z,12.50
2023-03-13T10:52:57.821Z,12.63
2023-03-13T10:55:26.451Z,12.86
2023-03-13T10:58:01.390Z,12.81
2023-03-13T11:00:37.134Z,12.86
2023-03-13T11:03:33.563Z,13.04
2023-03-13T11:06:03.348Z,13.05
2023-03-13T11:08:37.483Z,13.19
2023-03-13T11:11:16.675Z,13.23
2023-03-13T11:13:44.867Z,13.27
2023-03-13T11:16:20.480Z,13.36
2023-03-13T11:19:06.124Z,13.48
2023-03-13T11:21:45.572Z,13.58
2023-03-13T11:24:27.961Z,13.56
2023-03-13T11:27:09.078Z,13.64
2023-03-13T11:29:45.449Z,13.59
2023-03-13T11:32:54.089Z,13.64
2023-03-13T11:35:33.383Z,13.56
2023-03-13T11:38:08.118Z,13.47
2023-03-13T11:41:19.807Z,13.33
2023-03-13T11:44:05.386Z,13.16
2023-03-13T11:46:54.795Z,13.00
2023-03-13T11:49:25.137Z,12.91
2023-03-13T11:52:07.779Z,12.90
2023-03-13T11:54:55.308Z,12.75
2023-03-13T11:57:30.965Z,12.67
2023-03-13T12:00:14.270Z,12.61
2023-03-13T12:02:59.967Z,12.68
2023-03-13T12:05:29.071Z,12.57
2023-03-13T12:08:07.378Z,12.40
2023-03-13T12:10:43.804Z,12.24
2023-03-13T12:13:31.615Z,12.24
2023-03-13T12:16:07.582Z,12.16
2023-03-13T12:18:44.096Z,12.16
2023-03-13T12:21:23.879Z,12.28
2023-03-13T12:24:03.254Z,12.46
2023-03-13T12:26:49.958Z,12.60
2023-03-13T12:30:01.548Z,12.82
2023-03-13T12:32:54.184Z,13.00
2023-03-13T12:35:33.339Z,13.19
2023-03-13T12:38:19.492Z,13.39
2023-03-13T12:41:10.209Z,13.59
2023-03-13T12:43:40.950Z,13.67
2023-03-13T12:46:34.901Z,13.97
2023-03-13T12:49:28.381Z,14.17
2023-03-13T12:52:02.654Z,14.17
2023-03-13T12:54:39.064Z,14.22
2023-03-13T12:57:42.315Z,14.17
2023-03-13T13:00:22.298Z,14.18
2023-03-13T13:03:16.451Z,14.07
2023-03-13T13:06:19.653Z,13.95
2023-03-13T13:08:52.984Z,13.91
2023-03-13T13:11:38.928Z,13.86
2023-03-13T13:14:12.344Z,13.92
2023-03-13T13:16:47.296Z,13.96
2023-03-13T13:19:40.799Z,14.12
2023-03-13T13:22:39.183Z,14.08
2023-03-13T13:25:33.196Z,14.23
2023-03-13T13:28:15.947Z,14.23
2023-03-13T13:30:43.527Z,14.43
2023-03-13T13:33:30.883Z,14.73
2023-03-13T13:36:10.650Z,15.19
2023-03-13T13:38:44.321Z,15.75
2023-03-13T13:41:11.753Z,16.19
2023-03-13T13:43:48.048Z,16.32
2023-03-13T13:46:31.478Z,16.17
2023-03-13T13:49:08.104Z,15.90
2023-03-13T13:51:39.934Z,15.79
2023-03-13T13:54:32.511Z,15.63
2023-03-13T13:57:07.271Z,15.74
2023-03-13T13:59:42.351Z,15.57
2023-03-13T14:02:10.791Z,15.71
2023-03-13T14:04:52.811Z,15.78
2023-03-13T14:07:45.240Z,15.87
2023-03-13T14:10:32.109Z,16.01
2023-03-13T14:13:02.978Z,16.21
2023-03-13T14:15:32.233Z,16.29
2023-03-13T14:18:26.718Z,16.51
2023-03-13T14:20:54.496Z,16.54
2023-03-13T14:23:33.307Z,16.41
2023-03-13T14:26:35.515Z,16.20
2023-03-13T14:29:05.987Z,16.12
2023-03-13T14:31:37.573Z,15.99
2023-03-13T14:34:07.957Z,15.77
2023-03-13T14:37:11.176Z,15.54
2023-03-13T14:39:46.203Z,15.40
2023-03-13T14:42:16.561Z,15.23
2023-03-13T14:44:46.755Z,15.32
2023-03-13T14:47:27.012Z,15.07
2023-03-13T14:50:04.469Z,15.06
2023-03-13T14:52:33.207Z,15.13
2023-03-13T14:55:04.454Z,15.12
2023-03-13T14:57:33.019Z,15.28
2023-03-13T15:00:40.830Z,15.30
2023-03-13T15:03:17.466Z,15.35
2023-03-13T15:06:07.516Z,15.32
2023-03-13T15:08:38.084Z,15.34
2023-03-13T15:11:26.686Z,15.05
2023-03-13T15:13:54.921Z,15.10
2023-03-13T15:16:24.180Z,14.95
2023-03-13T15:18:53.013Z,14.96
2023-03-13T15:21:23.781Z,14.95
2023-03-13T15:23:56.186Z,14.91
2023-03-13T15:26:24.965Z,14.93
2023-03-13T15:28:52.485Z,14.81
2023-03-13T15:31:23.921Z,14.64
2023-03-13T15:33:57.059Z,14.53
2023-03-13T15:36:26.128Z,14.49
2023-03-13T15:38:53.632Z,14.36
2023-03-13T15:41:21.654Z,14.25
2023-03-13T15:43:52.900Z,14.26
2023-03-13T15:46:21.254Z,14.19
2023-03-13T15:48:49.007Z,14.24
2023-03-13T15:51:17.579Z,14.23
2023-03-13T15:53:46.538Z,14.22
2023-03-13T15:56:19.979Z,14.17
2023-03-13T15:58:48.058Z,14.12
2023-03-13T16:01:16.773Z,14.14
2023-03-13T16:03:46.200Z,14.17
2023-03-13T16:06:28.250Z,14.22
2023-03-13T16:08:55.714Z,14.25
2023-03-13T16:11:24.675Z,14.20
2023-03-13T16:13:53.001Z,14.10
2023-03-13T16:16:23.410Z,13.85
2023-03-13T16:18:52.394Z,13.80
2023-03-13T16:21:26.249Z,13.70
2023-03-13T16:23:53.809Z,13.66
2023-03-13T16:26:24.163Z,13.68
2023-03-13T16:28:53.210Z,13.52
2023-03-13T16:31:29.776Z,13.46
2023-03-13T16:33:59.034Z,13.41
2023-03-13T16:36:30.282Z,13.29
2023-03-13T16:39:03.272Z,13.24
2023-03-13T16:41:33.640Z,13.20
2023-03-13T16:44:02.846Z,13.13
2023-03-13T16:46:37.883Z,12.98
2023-03-13T16:49:07.005Z,12.98
2023-03-13T16:51:34.720Z,12.98
2023-03-13T16:54:03.681Z,12.92
2023-03-13T16:56:39.135Z,12.88
2023-03-13T16:59:16.888Z,12.88
2023-03-13T17:01:46.053Z,12.79
2023-03-13T17:04:13.999Z,12.74
2023-03-13T17:06:44.774Z,12.64
2023-03-13T17:09:16.415Z,12.67
2023-03-13T17:11:44.797Z,12.63
2023-03-13T17:14:13.519Z,12.59
2023-03-13T17:16:45.674Z,12.50
2023-03-13T17:19:14.864Z,12.43
2023-03-13T17:21:42.706Z,12.47
2023-03-13T17:24:10.177Z,12.52
2023-03-13T17:26:39.485Z,12.45
2023-03-13T17:29:08.859Z,12.43
2023-03-13T17:31:40.639Z,12.45
2023-03-13T17:34:08.969Z,12.40
2023-03-13T17:36:36.624Z,12.45
2023-03-13T17:39:06.314Z,12.50
2023-03-13T17:41:35.272Z,12.54
2023-03-13T17:44:05.955Z,12.52
2023-03-13T17:46:41.069Z,12.48
2023-03-13T17:49:11.900Z,12.48
2023-03-13T17:51:41.658Z,12.45
2023-03-13T17:54:09.221Z,12.45
2023-03-13T17:56:39.675Z,12.46
2023-03-13T17:59:12.571Z,12.38
2023-03-13T18:01:40.220Z,12.29
2023-03-13T18:04:08.181Z,12.34
2023-03-13T18:06:49.940Z,12.36
2023-03-13T18:09:21.647Z,12.42
2023-03-13T18:11:49.651Z,12.40
2023-03-13T18:14:17.255Z,12.38
2023-03-13T18:16:51.259Z,12.45
2023-03-13T18:19:22.951Z,12.45
2023-03-13T18:21:55.690Z,12.42
2023-03-13T18:24:23.460Z,12.44
2023-03-13T18:26:51.204Z,12.40
2023-03-13T18:29:26.889Z,12.42
2023-03-13T18:31:56.734Z,12.38
2023-03-13T18:34:25.942Z,12.37
2023-03-13T18:36:54.570Z,12.36
2023-03-13T18:39:22.501Z,12.34
2023-03-13T18:41:50.227Z,12.25
2023-03-13T18:44:19.073Z,12.21
2023-03-13T18:46:47.933Z,12.30
2023-03-13T18:49:23.591Z,12.32
2023-03-13T18:51:56.032Z,12.31
2023-03-13T18:54:23.507Z,12.41
2023-03-13T18:56:51.051Z,12.41
2023-03-13T18:59:21.045Z,12.46
2023-03-13T19:01:48.957Z,12.41
2023-03-13T19:04:17.313Z,12.37
2023-03-13T19:06:49.033Z,12.34
2023-03-13T19:09:42.161Z,12.34
2023-03-13T19:12:10.308Z,12.32
2023-03-13T19:14:37.871Z,12.29
2023-03-13T19:17:07.324Z,12.24
2023-03-13T19:19:34.944Z,12.28
2023-03-13T19:22:02.460Z,12.34
2023-03-13T19:24:29.949Z,12.40
2023-03-13T19:27:00.294Z,12.37
2023-03-13T19:29:28.733Z,12.38
2023-03-13T19:31:56.580Z,12.40
2023-03-13T19:34:24.303Z,12.46
2023-03-13T19:36:53.535Z,12.50
2023-03-13T19:39:26.223Z,12.54
2023-03-13T19:41:54.097Z,12.53
2023-03-13T19:44:22.048Z,12.58
2023-03-13T19:46:49.608Z,12.57
2023-03-13T19:49:20.017Z,12.32
2023-03-13T19:51:48.311Z,12.01
2023-03-13T19:54:15.898Z,11.70
2023-03-13T19:56:46.098Z,11.59
2023-03-13T19:59:16.626Z,11.44
2023-03-13T20:01:44.454Z,11.34
2023-03-13T20:04:12.699Z,11.19
2023-03-13T20:06:41.778Z,11.11
2023-03-13T20:09:11.769Z,10.97
2023-03-13T20:11:39.328Z,10.90
2023-03-13T20:14:07.337Z,10.85
2023-03-13T20:16:35.342Z,10.78
2023-03-13T20:19:03.646Z,10.66
2023-03-13T20:21:36.797Z,10.64
2023-03-13T20:24:04.574Z,10.64
2023-03-13T20:26:32.417Z,10.66
2023-03-13T20:28:59.939Z,10.63
2023-03-13T20:31:31.482Z,10.57
2023-03-13T20:33:59.977Z,10.60
2023-03-13T20:36:27.792Z,10.62
2023-03-13T20:38:55.426Z,10.56
2023-03-13T20:41:25.953Z,10.69
2023-03-13T20:43:53.845Z,10.81
2023-03-13T20:46:21.739Z,10.87
2023-03-13T20:48:49.709Z,10.91
2023-03-13T20:51:17.201Z,10.89
2023-03-13T20:53:44.764Z,10.90
2023-03-13T20:56:12.459Z,10.94
2023-03-13T20:58:40.083Z,10.83
2023-03-13T21:01:08.384Z,10.84
2023-03-13T21:03:36.382Z,10.84
2023-03-13T21:06:12.364Z,10.87
2023-03-13T21:08:39.972Z,10.87
2023-03-13T21:11:19.619Z,10.91
2023-03-13T21:13:47.946Z,10.86
2023-03-13T21:16:16.807Z,10.87
2023-03-13T21:18:44.593Z,10.85
2023-03-13T21:21:18.929Z,10.82
2023-03-13T21:23:47.376Z,10.83
2023-03-13T21:26:15.139Z,10.87
2023-03-13T21:28:42.626Z,10.91
2023-03-13T21:31:13.531Z,10.92
2023-03-13T21:33:42.043Z,10.97
2023-03-13T21:36:10.363Z,10.96
2023-03-13T21:38:38.696Z,10.94
2023-03-13T21:41:14.554Z,10.96
2023-03-13T21:43:42.872Z,10.97
2023-03-13T21:46:11.885Z,10.91
2023-03-13T21:48:40.669Z,10.83
2023-03-13T21:51:09.364Z,10.76
2023-03-13T21:53:38.256Z,10.68
2023-03-13T21:56:06.094Z,10.64
2023-03-13T21:58:33.599Z,10.62
2023-03-13T22:01:01.151Z,10.59
2023-03-13T22:03:29.021Z,10.64
2023-03-13T22:05:56.526Z,10.64
2023-03-13T22:08:23.962Z,10.65
2023-03-13T22:10:55.084Z,10.63
2023-03-13T22:13:22.711Z,10.62
2023-03-13T22:15:52.800Z,10.57
2023-03-13T22:18:20.420Z,10.61
2023-03-13T22:20:47.906Z,10.64
2023-03-13T22:23:15.385Z,10.59
2023-03-13T22:25:44.319Z,10.54
2023-03-13T22:28:13.555Z,10.53
2023-03-13T22:30:41.217Z,10.52
2023-03-13T22:33:08.725Z,10.53
2023-03-13T22:35:39.753Z,10.52
2023-03-13T22:38:07.279Z,10.47
2023-03-13T22:40:34.758Z,10.43
2023-03-13T22:43:02.418Z,10.47
2023-03-13T22:45:32.200Z,10.47
2023-03-13T22:48:06.334Z,10.44
2023-03-13T22:50:35.144Z,10.37
2023-03-13T22:53:03.264Z,10.41
2023-03-13T22:55:33.357Z,10.42
2023-03-13T22:58:01.136Z,10.40
2023-03-13T23:00:29.339Z,10.42
2023-03-13T23:02:56.795Z,10.38
2023-03-13T23:05:24.283Z,10.33
2023-03-13T23:07:51.807Z,10.24
2023-03-13T23:10:19.447Z,10.17
2023-03-13T23:12:46.927Z,10.18
2023-03-13T23:15:14.724Z,10.14
2023-03-13T23:17:42.378Z,10.11
2023-03-13T23:20:13.713Z,10.07
2023-03-13T23:22:43.208Z,10.08
2023-03-13T23:25:12.177Z,10.00
2023-03-13T23:27:39.881Z,9.94
2023-03-13T23:30:09.564Z,9.83
2023-03-13T23:32:39.202Z,9.77
2023-03-13T23:35:08.080Z,9.81
2023-03-13T23:37:35.528Z,9.86
2023-03-13T23:40:05.707Z,9.89
2023-03-13T23:42:33.203Z,9.97
2023-03-13T23:45:02.514Z,9.95
2023-03-13T23:47:30.276Z,9.93
2023-03-13T23:49:57.786Z,9.91
2023-03-13T23:52:25.408Z,9.83
2023-03-13T23:54:53.362Z,9.87
2023-03-13T23:57:20.926Z,9.80
2023-03-13T23:59:49.267Z,9.77
